createdAt,value
2022-09-17T00:00:11.308Z,47.22
2022-09-17T00:05:18.692Z,47.23
2022-09-17T00:10:25.782Z,47.26
2022-09-17T00:15:33.028Z,47.33
2022-09-17T00:20:40.430Z,47.30
2022-09-17T00:25:47.568Z,47.29
2022-09-17T00:30:54.842Z,47.23
2022-09-17T00:36:02.155Z,47.33
2022-09-17T00:41:09.311Z,47.39
2022-09-17T00:46:16.724Z,47.36
2022-09-17T00:51:23.943Z,47.37
2022-09-17T00:56:31.039Z,47.36
2022-09-17T01:01:38.291Z,47.36
2022-09-17T01:06:45.594Z,47.34
2022-09-17T01:11:52.709Z,47.30
2022-09-17T01:16:59.972Z,47.26
2022-09-17T01:22:07.287Z,47.17
2022-09-17T01:27:14.369Z,47.09
2022-09-17T01:32:21.519Z,46.97
2022-09-17T01:37:30.746Z,46.95
2022-09-17T01:42:35.980Z,47.01
2022-09-17T01:47:43.193Z,47.01
2022-09-17T01:52:50.533Z,46.99
2022-09-17T01:57:57.638Z,47.13
2022-09-17T02:03:04.909Z,47.17
2022-09-17T02:08:12.242Z,47.17
2022-09-17T02:13:19.311Z,47.17
2022-09-17T02:18:26.499Z,47.06
2022-09-17T02:23:33.803Z,47.04
2022-09-17T02:28:40.933Z,46.99
2022-09-17T02:33:48.148Z,46.85
2022-09-17T02:38:55.469Z,46.78
2022-09-17T02:44:02.582Z,46.80
2022-09-17T02:49:09.748Z,46.90
2022-09-17T02:54:17.048Z,46.95
2022-09-17T02:59:24.155Z,46.88
2022-09-17T03:04:31.356Z,46.82
2022-09-17T03:09:38.691Z,46.75
2022-09-17T03:14:45.763Z,46.75
2022-09-17T03:19:52.995Z,46.75
2022-09-17T03:25:00.327Z,46.75
2022-09-17T03:30:07.397Z,46.68
2022-09-17T03:35:14.678Z,46.68
2022-09-17T03:40:22.074Z,46.64
2022-09-17T03:45:29.113Z,46.62
2022-09-17T03:50:36.299Z,46.52
2022-09-17T03:55:43.672Z,46.57
2022-09-17T04:00:50.709Z,46.56
2022-09-17T04:05:57.966Z,46.50
2022-09-17T04:11:05.369Z,46.49
2022-09-17T04:16:12.518Z,46.44
2022-09-17T04:21:19.662Z,46.35
2022-09-17T04:26:27.041Z,46.29
2022-09-17T04:31:34.256Z,46.24
2022-09-17T04:36:41.414Z,46.17
2022-09-17T04:41:48.735Z,46.05
2022-09-17T04:46:56.071Z,45.98
2022-09-17T04:52:03.105Z,45.91
2022-09-17T04:57:10.507Z,45.84
2022-09-17T05:02:17.685Z,45.80
2022-09-17T05:07:24.907Z,45.86
2022-09-17T05:12:34.509Z,45.80
2022-09-17T05:17:39.304Z,45.90
2022-09-17T05:22:46.476Z,45.89
2022-09-17T05:27:53.836Z,45.89
2022-09-17T05:33:00.909Z,45.86
2022-09-17T05:38:08.113Z,45.80
2022-09-17T05:43:15.465Z,45.62
2022-09-17T05:48:22.520Z,45.56
2022-09-17T05:53:29.727Z,45.46
2022-09-17T05:58:37.056Z,45.45
2022-09-17T06:03:44.129Z,45.42
2022-09-17T06:08:51.341Z,45.36
2022-09-17T06:13:58.697Z,45.27
2022-09-17T06:19:05.748Z,45.27
2022-09-17T06:24:12.958Z,45.27
2022-09-17T06:29:20.278Z,45.27
2022-09-17T06:34:27.362Z,45.26
2022-09-17T06:39:34.567Z,45.23
2022-09-17T06:44:41.898Z,45.16
2022-09-17T06:49:48.978Z,45.14
2022-09-17T06:54:56.161Z,45.14
2022-09-17T07:00:03.508Z,45.10
2022-09-17T07:05:10.599Z,45.14
2022-09-17T07:10:17.862Z,45.14
2022-09-17T07:15:25.235Z,45.14
2022-09-17T07:20:32.333Z,45.17
2022-09-17T07:25:39.586Z,45.08
2022-09-17T07:30:46.962Z,45.02
2022-09-17T07:35:54.029Z,44.98
2022-09-17T07:41:01.237Z,44.95
2022-09-17T07:46:08.631Z,44.88
2022-09-17T07:51:15.644Z,44.75
2022-09-17T07:56:22.914Z,44.57
2022-09-17T08:01:30.352Z,43.59
2022-09-17T08:06:37.360Z,44.45
2022-09-17T08:11:55.600Z,44.29
2022-09-17T08:16:52.003Z,44.32
2022-09-17T08:21:59.101Z,44.19
2022-09-17T08:27:06.340Z,44.04
2022-09-17T08:32:13.668Z,43.78
2022-09-17T08:37:20.789Z,43.95
2022-09-17T08:42:27.992Z,43.79
2022-09-17T08:47:35.350Z,43.82
2022-09-17T08:52:42.408Z,43.90
2022-09-17T08:57:49.591Z,43.70
2022-09-17T09:02:56.924Z,43.79
2022-09-17T09:08:04.017Z,43.78
2022-09-17T09:13:11.285Z,43.75
2022-09-17T09:18:18.583Z,43.48
2022-09-17T09:23:25.633Z,43.18
2022-09-17T09:28:32.836Z,43.25
2022-09-17T09:33:43.325Z,43.40
2022-09-17T09:38:47.312Z,43.39
2022-09-17T09:44:05.926Z,42.05
2022-09-17T09:49:01.903Z,42.52
2022-09-17T09:54:08.979Z,41.77
2022-09-17T09:59:16.177Z,42.36
2022-09-17T10:04:23.523Z,41.22
2022-09-17T10:09:30.603Z,41.82
2022-09-17T10:14:37.834Z,41.47
2022-09-17T10:19:45.225Z,41.42
2022-09-17T10:24:52.320Z,40.85
2022-09-17T10:29:59.529Z,40.34
2022-09-17T10:35:06.896Z,40.82
2022-09-17T10:40:14.082Z,41.56
2022-09-17T10:45:21.256Z,42.17
2022-09-17T10:50:28.675Z,42.91
2022-09-17T10:55:35.765Z,43.71
2022-09-17T11:00:43.006Z,44.37
2022-09-17T11:05:50.394Z,44.31
2022-09-17T11:10:57.476Z,44.43
2022-09-17T11:16:04.742Z,44.32
2022-09-17T11:21:12.049Z,44.91
2022-09-17T11:26:19.221Z,43.82
2022-09-17T11:31:26.541Z,44.59
2022-09-17T11:36:33.817Z,45.52
2022-09-17T11:41:40.901Z,45.91
2022-09-17T11:46:48.203Z,46.39
2022-09-17T11:51:55.453Z,46.86
2022-09-17T11:57:06.418Z,46.64
2022-09-17T12:02:09.858Z,47.33
2022-09-17T12:07:17.019Z,43.38
2022-09-17T12:12:47.607Z,43.21
2022-09-17T12:17:31.320Z,42.96
2022-09-17T12:22:40.432Z,45.86
2022-09-17T12:27:45.714Z,44.29
2022-09-17T12:32:52.988Z,44.89
2022-09-17T12:38:00.364Z,44.71
2022-09-17T12:43:07.479Z,45.43
2022-09-17T12:48:14.742Z,45.32
2022-09-17T12:53:22.129Z,45.21
2022-09-17T12:58:29.175Z,43.98
2022-09-17T13:03:36.346Z,45.04
2022-09-17T13:08:43.640Z,44.18
2022-09-17T13:13:50.770Z,43.82
2022-09-17T13:19:16.546Z,44.15
2022-09-17T13:24:05.435Z,44.07
2022-09-17T13:29:12.566Z,44.15
2022-09-17T13:34:19.807Z,43.86
2022-09-17T13:39:27.118Z,44.38
2022-09-17T13:44:34.300Z,44.24
2022-09-17T13:49:41.563Z,44.16
2022-09-17T13:54:48.922Z,44.07
2022-09-17T13:59:56.097Z,44.05
2022-09-17T14:05:03.368Z,43.19
2022-09-17T14:10:10.680Z,43.00
2022-09-17T14:15:17.792Z,42.49
2022-09-17T14:20:26.260Z,43.40
2022-09-17T14:25:33.603Z,43.71
2022-09-17T14:30:40.686Z,44.58
2022-09-17T14:35:47.884Z,44.79
2022-09-17T14:40:55.314Z,44.66
2022-09-17T14:46:02.455Z,43.76
2022-09-17T14:51:09.714Z,43.35
2022-09-17T14:56:17.086Z,43.66
2022-09-17T15:01:24.267Z,43.40
2022-09-17T15:06:31.424Z,43.58
2022-09-17T15:11:38.767Z,43.43
2022-09-17T15:16:45.900Z,43.43
2022-09-17T15:21:53.174Z,43.40
2022-09-17T15:27:00.509Z,43.86
2022-09-17T15:32:07.613Z,44.40
2022-09-17T15:37:14.839Z,44.77
2022-09-17T15:42:22.143Z,44.95
2022-09-17T15:47:29.272Z,45.51
2022-09-17T15:52:36.415Z,45.55
2022-09-17T15:57:43.822Z,45.29
2022-09-17T16:02:51.088Z,45.04
2022-09-17T16:07:58.154Z,45.10
2022-09-17T16:13:05.511Z,44.86
2022-09-17T16:18:12.599Z,44.88
2022-09-17T16:23:19.799Z,44.37
2022-09-17T16:28:27.202Z,44.13
2022-09-17T16:33:34.334Z,43.92
2022-09-17T16:38:41.590Z,43.72
2022-09-17T16:43:48.982Z,43.79
2022-09-17T16:48:56.130Z,43.86
2022-09-17T16:54:03.365Z,43.68
2022-09-17T16:59:10.687Z,43.69
2022-09-17T17:04:17.828Z,43.37
2022-09-17T17:09:25.071Z,43.21
2022-09-17T17:14:32.373Z,43.11
2022-09-17T17:19:39.662Z,43.37
2022-09-17T17:24:46.852Z,43.43
2022-09-17T17:29:54.194Z,43.09
2022-09-17T17:35:01.277Z,42.66
2022-09-17T17:40:08.565Z,42.92
2022-09-17T17:45:15.809Z,42.81
2022-09-17T17:50:24.242Z,42.74
2022-09-17T17:55:31.450Z,42.57
2022-09-17T18:00:38.789Z,42.63
2022-09-17T18:05:45.865Z,42.90
2022-09-17T18:10:53.102Z,42.37
2022-09-17T18:16:00.545Z,42.48
2022-09-17T18:21:07.538Z,42.66
2022-09-17T18:26:14.781Z,42.89
2022-09-17T18:31:22.170Z,42.66
2022-09-17T18:36:29.474Z,43.30
2022-09-17T18:41:36.886Z,43.63
2022-09-17T18:46:44.345Z,43.61
2022-09-17T18:51:51.461Z,42.89
2022-09-17T18:56:58.674Z,42.66
2022-09-17T19:02:06.090Z,42.65
2022-09-17T19:07:13.141Z,43.30
2022-09-17T19:12:20.336Z,43.62
2022-09-17T19:17:27.725Z,43.75
2022-09-17T19:22:34.800Z,43.77
2022-09-17T19:27:42.057Z,43.88
2022-09-17T19:32:49.384Z,43.85
2022-09-17T19:37:56.449Z,43.95
2022-09-17T19:43:03.687Z,43.95
2022-09-17T19:48:11.108Z,43.98
2022-09-17T19:53:19.108Z,43.95
2022-09-17T19:58:26.313Z,42.76
2022-09-17T20:03:33.627Z,43.69
2022-09-17T20:08:44.660Z,42.85
2022-09-17T20:13:47.955Z,42.98
2022-09-17T20:18:55.351Z,42.95
2022-09-17T20:24:02.426Z,42.84
2022-09-17T20:29:09.669Z,42.76
2022-09-17T20:34:17.022Z,42.89
2022-09-17T20:39:24.770Z,40.87
2022-09-17T20:44:31.645Z,41.63
2022-09-17T20:49:38.980Z,40.99
2022-09-17T20:54:46.128Z,41.38
2022-09-17T20:59:53.364Z,42.20
2022-09-17T21:05:00.678Z,43.11
2022-09-17T21:10:07.782Z,43.40
2022-09-17T21:15:14.974Z,43.27
2022-09-17T21:20:22.372Z,42.20
2022-09-17T21:25:29.511Z,42.78
2022-09-17T21:30:36.800Z,42.22
2022-09-17T21:35:44.160Z,42.69
2022-09-17T21:40:51.286Z,43.24
2022-09-17T21:45:58.518Z,42.98
2022-09-17T21:51:05.894Z,42.40
2022-09-17T21:56:13.036Z,41.80
2022-09-17T22:01:20.485Z,42.92
2022-09-17T22:06:27.721Z,41.15
2022-09-17T22:11:34.779Z,41.61
2022-09-17T22:16:41.961Z,40.51
2022-09-17T22:21:49.358Z,41.04
2022-09-17T22:26:58.129Z,40.43
2022-09-17T22:32:03.616Z,39.75
2022-09-17T22:37:10.946Z,39.89
2022-09-17T22:42:18.065Z,40.12
2022-09-17T22:47:25.282Z,41.18
2022-09-17T22:52:32.615Z,40.99
2022-09-17T22:57:39.692Z,40.77
2022-09-17T23:02:46.946Z,42.29
2022-09-17T23:07:54.256Z,42.37
2022-09-17T23:13:01.297Z,41.58
2022-09-17T23:18:08.578Z,41.73
2022-09-17T23:23:15.915Z,41.59
2022-09-17T23:28:23.040Z,41.37
2022-09-17T23:33:30.266Z,40.72
2022-09-17T23:38:37.638Z,40.54
2022-09-17T23:43:44.691Z,40.75
2022-09-17T23:48:51.977Z,41.14
2022-09-17T23:53:59.375Z,40.92
2022-09-17T23:59:06.452Z,40.83
